createdAt,value
2018-07-19T00:01:12.067Z,9.23
2018-07-19T00:03:42.163Z,9.60
2018-07-19T00:06:11.888Z,9.57
2018-07-19T00:08:41.692Z,10.03
2018-07-19T00:11:11.776Z,9.67
2018-07-19T00:13:41.867Z,12.80
2018-07-19T00:16:11.951Z,11.27
2018-07-19T00:18:42.012Z,12.77
2018-07-19T00:21:12.069Z,12.80
2018-07-19T00:23:42.156Z,12.50
2018-07-19T00:26:12.352Z,12.40
2018-07-19T00:28:42.468Z,11.63
2018-07-19T00:31:12.552Z,11.17
2018-07-19T00:33:42.629Z,10.37
2018-07-19T00:36:12.707Z,9.90
2018-07-19T00:38:42.784Z,11.47
2018-07-19T00:41:12.880Z,11.50
2018-07-19T00:43:42.985Z,11.80
2018-07-19T00:46:13.070Z,11.70
2018-07-19T00:48:43.104Z,12.80
2018-07-19T00:51:13.180Z,11.60
2018-07-19T00:53:43.324Z,12.37
2018-07-19T00:56:13.507Z,11.20
2018-07-19T00:58:43.604Z,12.90
2018-07-19T01:01:13.708Z,11.70
2018-07-19T01:03:43.828Z,12.73
2018-07-19T01:06:14.008Z,13.03
2018-07-19T01:08:44.092Z,12.33
2018-07-19T01:11:14.234Z,12.17
2018-07-19T01:13:44.308Z,13.00
2018-07-19T01:16:14.424Z,12.93
2018-07-19T01:18:44.560Z,12.97
2018-07-19T01:21:14.906Z,13.67
2018-07-19T01:23:45.048Z,12.90
2018-07-19T01:26:15.195Z,12.70
2018-07-19T01:28:45.373Z,12.90
2018-07-19T01:31:15.616Z,12.30
2018-07-19T01:33:45.748Z,11.87
2018-07-19T01:36:15.855Z,13.17
2018-07-19T01:38:46.060Z,12.53
2018-07-19T01:41:30.607Z,12.83
2018-07-19T01:44:00.766Z,12.80
2018-07-19T01:46:30.830Z,13.03
2018-07-19T01:49:00.975Z,14.20
2018-07-19T01:51:31.119Z,13.20
2018-07-19T01:54:01.297Z,13.50
2018-07-19T01:56:31.472Z,13.60
2018-07-19T01:59:01.568Z,12.50
2018-07-19T02:01:31.724Z,13.23
2018-07-19T02:04:01.920Z,12.80
2018-07-19T02:06:32.080Z,11.70
2018-07-19T02:09:02.238Z,12.97
2018-07-19T02:11:32.399Z,11.53
2018-07-19T02:14:02.523Z,11.53
2018-07-19T02:16:32.526Z,11.77
2018-07-19T02:19:02.616Z,11.83
2018-07-19T02:21:32.763Z,11.03
2018-07-19T02:24:02.860Z,11.47
2018-07-19T02:26:32.987Z,11.80
2018-07-19T02:29:03.116Z,11.37
2018-07-19T02:31:33.384Z,11.60
2018-07-19T02:34:04.261Z,11.23
2018-07-19T02:36:34.371Z,11.17
2018-07-19T02:39:06.461Z,11.43
2018-07-19T02:41:36.319Z,11.33
2018-07-19T02:44:07.846Z,12.37
2018-07-19T02:46:39.194Z,12.03
2018-07-19T02:49:09.676Z,11.30
2018-07-19T02:51:40.800Z,11.43
2018-07-19T02:54:10.969Z,11.13
2018-07-19T02:56:40.807Z,11.53
2018-07-19T02:59:10.952Z,11.80
2018-07-19T03:01:41.024Z,11.30
2018-07-19T03:04:11.140Z,11.03
2018-07-19T03:06:41.184Z,10.67
2018-07-19T03:09:11.215Z,11.43
2018-07-19T03:11:41.364Z,11.20
2018-07-19T03:14:11.527Z,11.03
2018-07-19T03:16:41.699Z,10.80
2018-07-19T03:19:11.799Z,10.20
2018-07-19T03:21:41.879Z,11.03
2018-07-19T03:24:11.996Z,11.77
2018-07-19T03:26:42.100Z,11.20
2018-07-19T03:29:12.227Z,11.37
2018-07-19T03:31:42.335Z,11.43
2018-07-19T03:34:12.451Z,10.57
2018-07-19T03:36:42.619Z,10.80
2018-07-19T03:39:12.791Z,10.60
2018-07-19T03:41:42.956Z,10.57
2018-07-19T03:44:13.063Z,9.97
2018-07-19T03:46:43.180Z,11.30
2018-07-19T03:49:13.375Z,10.73
2018-07-19T03:51:43.480Z,10.27
2018-07-19T03:54:13.632Z,10.40
2018-07-19T03:56:43.754Z,10.83
2018-07-19T03:59:13.953Z,10.40
2018-07-19T04:01:44.088Z,10.47
2018-07-19T04:04:14.275Z,11.07
2018-07-19T04:06:44.431Z,10.23
2018-07-19T04:09:14.600Z,10.13
2018-07-19T04:11:44.660Z,9.77
2018-07-19T04:14:14.797Z,9.87
2018-07-19T04:16:44.955Z,10.40
2018-07-19T04:19:15.064Z,10.10
2018-07-19T04:21:45.233Z,9.80
2018-07-19T04:24:15.404Z,9.73
2018-07-19T04:26:45.504Z,9.13
2018-07-19T04:29:15.612Z,11.00
2018-07-19T04:31:45.711Z,10.17
2018-07-19T04:34:15.887Z,9.40
2018-07-19T04:36:45.987Z,9.33
2018-07-19T04:39:16.344Z,8.87
2018-07-19T04:41:46.408Z,9.03
2018-07-19T04:44:16.554Z,8.90
2018-07-19T04:46:46.860Z,8.63
2018-07-19T04:49:17.123Z,9.43
2018-07-19T04:51:47.316Z,9.00
2018-07-19T04:54:17.480Z,8.83
2018-07-19T04:56:47.639Z,8.33
2018-07-19T04:59:17.775Z,8.90
2018-07-19T05:01:48.017Z,8.97
2018-07-19T05:04:18.140Z,9.00
2018-07-19T05:06:48.283Z,9.10
2018-07-19T05:09:18.458Z,9.10
2018-07-19T05:11:48.620Z,8.40
2018-07-19T05:14:18.722Z,8.00
2018-07-19T05:16:48.936Z,8.53
2018-07-19T05:19:19.096Z,8.73
2018-07-19T05:21:49.245Z,7.83
2018-07-19T05:24:19.373Z,8.53
2018-07-19T05:26:49.590Z,8.70
2018-07-19T05:29:20.384Z,8.50
2018-07-19T05:31:50.536Z,8.57
2018-07-19T05:34:20.756Z,8.20
2018-07-19T05:36:51.049Z,8.60
2018-07-19T05:39:21.220Z,8.67
2018-07-19T05:41:51.339Z,8.50
2018-07-19T05:44:21.524Z,9.00
2018-07-19T05:46:51.668Z,8.60
2018-07-19T05:49:21.960Z,8.13
2018-07-19T05:51:52.120Z,8.70
2018-07-19T05:54:22.225Z,8.83
2018-07-19T05:56:52.369Z,8.30
2018-07-19T05:59:22.604Z,8.40
2018-07-19T06:01:52.703Z,8.63
2018-07-19T06:04:22.801Z,8.70
2018-07-19T06:06:52.982Z,8.47
2018-07-19T06:09:23.144Z,8.50
2018-07-19T06:11:53.224Z,7.90
2018-07-19T06:14:23.376Z,8.13
2018-07-19T06:16:53.507Z,8.43
2018-07-19T06:19:23.616Z,8.47
2018-07-19T06:21:53.770Z,8.03
2018-07-19T06:24:23.926Z,7.33
2018-07-19T06:26:54.040Z,8.00
2018-07-19T06:29:24.588Z,7.80
2018-07-19T06:31:54.756Z,7.90
2018-07-19T06:34:24.868Z,8.20
2018-07-19T06:36:54.984Z,8.37
2018-07-19T06:39:25.280Z,7.20
2018-07-19T06:41:55.413Z,6.57
2018-07-19T06:44:25.578Z,7.33
2018-07-19T06:46:55.788Z,7.27
2018-07-19T06:49:25.969Z,7.83
2018-07-19T06:51:56.172Z,8.20
2018-07-19T06:54:26.240Z,7.60
2018-07-19T06:56:56.351Z,7.40
2018-07-19T06:59:26.484Z,7.50
2018-07-19T07:01:56.572Z,7.50
2018-07-19T07:04:26.718Z,7.20
2018-07-19T07:06:56.874Z,7.80
2018-07-19T07:09:27.005Z,7.30
2018-07-19T07:11:57.227Z,6.47
2018-07-19T07:14:27.339Z,7.53
2018-07-19T07:16:57.447Z,7.07
2018-07-19T07:19:27.211Z,6.53
2018-07-19T07:21:57.102Z,6.70
2018-07-19T07:24:27.247Z,7.03
2018-07-19T07:26:57.494Z,7.50
2018-07-19T07:29:27.699Z,6.87
2018-07-19T07:31:57.819Z,6.73
2018-07-19T07:34:28.100Z,6.60
2018-07-19T07:36:58.187Z,7.40
2018-07-19T07:39:28.864Z,6.93
2018-07-19T07:41:59.071Z,6.83
2018-07-19T07:44:29.181Z,6.70
2018-07-19T07:46:59.333Z,7.00
2018-07-19T07:49:29.489Z,6.73
2018-07-19T07:51:59.755Z,6.90
2018-07-19T07:54:29.867Z,6.20
2018-07-19T07:57:00.029Z,7.10
2018-07-19T07:59:30.310Z,7.10
2018-07-19T08:02:00.531Z,6.57
2018-07-19T08:04:30.627Z,7.10
2018-07-19T08:07:00.427Z,6.77
2018-07-19T08:09:30.314Z,7.03
2018-07-19T08:12:00.423Z,6.87
2018-07-19T08:14:30.507Z,7.53
2018-07-19T08:17:00.587Z,6.13
2018-07-19T08:19:30.721Z,6.20
2018-07-19T08:22:00.808Z,7.10
2018-07-19T08:24:30.922Z,6.05
2018-07-19T08:27:01.020Z,6.03
2018-07-19T08:29:31.072Z,6.47
2018-07-19T08:32:01.236Z,7.20
2018-07-19T08:34:31.386Z,6.33
2018-07-19T08:37:01.516Z,7.13
2018-07-19T08:39:31.619Z,6.60
2018-07-19T08:42:02.703Z,7.17
2018-07-19T08:44:32.832Z,6.53
2018-07-19T08:47:02.911Z,6.08
2018-07-19T08:49:33.016Z,6.60
2018-07-19T08:52:03.140Z,6.42
2018-07-19T08:54:33.269Z,6.60
2018-07-19T08:57:03.337Z,6.55
2018-07-19T08:59:33.681Z,6.30
2018-07-19T09:02:03.692Z,6.17
2018-07-19T09:04:33.512Z,6.92
2018-07-19T09:07:03.319Z,6.90
2018-07-19T09:09:33.140Z,6.45
2018-07-19T09:12:03.300Z,6.40
2018-07-19T09:14:33.364Z,6.47
2018-07-19T09:17:03.544Z,6.92
2018-07-19T09:19:33.792Z,6.80
2018-07-19T09:22:04.117Z,6.28
2018-07-19T09:24:34.256Z,6.35
2018-07-19T09:27:04.364Z,6.53
2018-07-19T09:29:34.500Z,6.40
2018-07-19T09:32:04.663Z,6.50
2018-07-19T09:34:34.808Z,6.53
2018-07-19T09:37:05.036Z,6.20
2018-07-19T09:39:35.211Z,6.87
2018-07-19T09:42:05.337Z,6.33
2018-07-19T09:44:35.107Z,6.12
2018-07-19T09:47:05.011Z,6.47
2018-07-19T09:49:35.148Z,6.40
2018-07-19T09:52:05.367Z,6.40
2018-07-19T09:54:46.719Z,6.28
2018-07-19T09:57:16.800Z,6.97
2018-07-19T09:59:46.901Z,6.80
2018-07-19T10:02:17.087Z,6.75
2018-07-19T10:04:47.301Z,6.47
2018-07-19T10:07:17.564Z,6.72
2018-07-19T10:09:47.867Z,5.95
2018-07-19T10:12:18.184Z,5.92
2018-07-19T10:14:48.900Z,6.37
2018-07-19T10:17:19.153Z,5.87
2018-07-19T10:19:49.460Z,5.37
2018-07-19T10:22:19.628Z,5.47
2018-07-19T10:24:49.489Z,6.35
2018-07-19T10:27:19.464Z,6.20
2018-07-19T10:29:49.600Z,6.10
2018-07-19T10:32:19.970Z,6.22
2018-07-19T10:34:50.372Z,5.62
2018-07-19T10:37:20.634Z,6.12
2018-07-19T10:39:50.741Z,5.55
2018-07-19T10:42:20.855Z,6.03
2018-07-19T10:44:50.683Z,5.60
2018-07-19T10:47:20.553Z,5.72
2018-07-19T10:49:50.790Z,5.97
2018-07-19T10:52:20.929Z,5.83
2018-07-19T10:54:51.040Z,6.30
2018-07-19T10:57:21.201Z,5.72
2018-07-19T10:59:51.292Z,6.05
2018-07-19T11:02:21.596Z,5.58
2018-07-19T11:04:51.713Z,5.10
2018-07-19T11:07:21.844Z,6.00
2018-07-19T11:09:51.726Z,5.83
2018-07-19T11:12:21.659Z,6.10
2018-07-19T11:14:51.755Z,6.87
2018-07-19T11:17:21.847Z,6.15
2018-07-19T11:19:51.997Z,6.12
2018-07-19T11:22:22.133Z,5.62
2018-07-19T11:24:52.251Z,5.72
2018-07-19T11:27:22.408Z,5.50
2018-07-19T11:29:52.571Z,5.62
2018-07-19T11:32:22.713Z,5.12
2018-07-19T11:34:52.859Z,5.65
2018-07-19T11:37:22.999Z,5.37
2018-07-19T11:39:53.060Z,5.30
2018-07-19T11:42:23.284Z,6.05
2018-07-19T11:44:53.421Z,5.10
2018-07-19T11:47:23.484Z,5.37
2018-07-19T11:49:53.663Z,4.95
2018-07-19T11:52:23.800Z,5.42
2018-07-19T11:54:54.112Z,5.33
2018-07-19T11:57:24.488Z,5.35
2018-07-19T11:59:54.728Z,5.28
2018-07-19T12:02:24.822Z,5.20
2018-07-19T12:04:54.931Z,5.20
2018-07-19T12:07:25.037Z,5.03
2018-07-19T12:09:55.064Z,4.87
2018-07-19T12:12:25.276Z,4.92
2018-07-19T12:14:55.356Z,5.40
2018-07-19T12:17:25.655Z,4.70
2018-07-19T12:19:55.482Z,5.25
2018-07-19T12:22:25.492Z,5.53
2018-07-19T12:24:55.626Z,4.60
2018-07-19T12:27:25.918Z,4.60
2018-07-19T12:29:56.056Z,4.42
2018-07-19T12:32:26.232Z,4.03
2018-07-19T12:34:56.373Z,4.08
2018-07-19T12:37:26.492Z,4.47
2018-07-19T12:39:56.625Z,4.25
2018-07-19T12:42:26.768Z,4.08
2018-07-19T12:44:57.003Z,4.15
2018-07-19T12:47:27.093Z,4.60
2018-07-19T12:49:56.875Z,5.22
2018-07-19T12:52:26.764Z,4.92
2018-07-19T12:54:56.820Z,5.22
2018-07-19T12:57:26.916Z,5.08
2018-07-19T12:59:56.671Z,5.20
2018-07-19T13:02:26.599Z,5.45
2018-07-19T13:04:56.595Z,5.35
2018-07-19T13:07:26.432Z,4.90
2018-07-19T13:09:56.556Z,4.90
2018-07-19T13:12:26.648Z,4.40
2018-07-19T13:14:56.824Z,4.78
2018-07-19T13:17:26.958Z,5.05
2018-07-19T13:19:57.084Z,4.75
2018-07-19T13:22:27.234Z,4.30
2018-07-19T13:24:57.320Z,4.78
2018-07-19T13:27:27.836Z,4.60
2018-07-19T13:29:58.035Z,4.72
2018-07-19T13:32:28.140Z,4.92
2018-07-19T13:34:58.220Z,4.83
2018-07-19T13:37:28.331Z,4.90
2018-07-19T13:39:58.380Z,4.40
2018-07-19T13:42:28.540Z,4.45
2018-07-19T13:44:58.640Z,4.97
2018-07-19T13:47:28.719Z,4.63
2018-07-19T13:49:58.922Z,5.30
2018-07-19T13:52:40.256Z,4.87
2018-07-19T13:55:10.327Z,5.13
2018-07-19T13:57:40.425Z,5.77
2018-07-19T14:00:10.510Z,5.67
2018-07-19T14:02:40.603Z,5.43
2018-07-19T14:05:10.735Z,5.30
2018-07-19T14:07:40.885Z,5.30
2018-07-19T14:10:11.016Z,6.17
2018-07-19T14:12:41.188Z,6.00
2018-07-19T14:15:11.320Z,5.83
2018-07-19T14:17:41.424Z,5.73
2018-07-19T14:20:11.548Z,6.00
2018-07-19T14:22:41.657Z,5.50
2018-07-19T14:25:11.748Z,5.50
2018-07-19T14:27:41.788Z,5.70
2018-07-19T14:30:11.912Z,5.23
2018-07-19T14:32:42.004Z,5.67
2018-07-19T14:35:11.801Z,5.10
2018-07-19T14:37:41.628Z,5.03
2018-07-19T14:40:11.736Z,6.20
2018-07-19T14:42:41.892Z,5.13
2018-07-19T14:45:12.072Z,5.63
2018-07-19T14:47:42.178Z,5.40
2018-07-19T14:50:12.368Z,4.87
2018-07-19T14:52:42.175Z,4.83
2018-07-19T14:55:11.940Z,5.20
2018-07-19T14:57:41.988Z,5.40
2018-07-19T15:00:12.088Z,4.90
2018-07-19T15:02:42.156Z,5.10
2018-07-19T15:05:12.241Z,5.20
2018-07-19T15:07:42.472Z,5.13
2018-07-19T15:10:12.560Z,4.97
2018-07-19T15:12:42.679Z,5.50
2018-07-19T15:15:12.647Z,4.90
2018-07-19T15:17:42.520Z,5.00
2018-07-19T15:20:12.866Z,6.87
2018-07-19T15:22:42.953Z,4.90
2018-07-19T15:25:13.050Z,5.07
2018-07-19T15:27:43.196Z,5.43
2018-07-19T15:30:13.368Z,5.00
2018-07-19T15:32:43.097Z,4.67
2018-07-19T15:35:12.920Z,5.27
2018-07-19T15:37:43.023Z,4.80
2018-07-19T15:40:13.188Z,5.07
2018-07-19T15:42:43.306Z,5.33
2018-07-19T15:45:13.469Z,5.13
2018-07-19T15:47:43.531Z,5.00
2018-07-19T15:50:13.662Z,5.33
2018-07-19T15:52:43.700Z,5.13
2018-07-19T15:55:13.865Z,5.00
2018-07-19T15:57:43.996Z,4.77
2018-07-19T16:00:14.324Z,5.30
2018-07-19T16:02:44.080Z,5.50
2018-07-19T16:05:14.172Z,5.17
2018-07-19T16:07:43.955Z,5.50
2018-07-19T16:10:13.579Z,4.73
2018-07-19T16:12:43.083Z,6.77
2018-07-19T16:15:13.021Z,5.40
2018-07-19T16:17:43.078Z,5.10
2018-07-19T16:20:13.240Z,5.20
2018-07-19T16:22:43.318Z,5.03
2018-07-19T16:25:13.500Z,5.50
2018-07-19T16:27:43.608Z,4.43
2018-07-19T16:30:13.899Z,5.40
2018-07-19T16:32:43.980Z,4.70
2018-07-19T16:35:14.147Z,5.07
2018-07-19T16:37:44.262Z,5.00
2018-07-19T16:40:14.412Z,5.20
2018-07-19T16:42:44.439Z,5.10
2018-07-19T16:45:14.569Z,5.00
2018-07-19T16:47:44.700Z,5.07
2018-07-19T16:50:14.788Z,8.30
2018-07-19T16:52:45.583Z,5.17
2018-07-19T16:55:15.719Z,4.90
2018-07-19T16:57:45.835Z,5.30
2018-07-19T17:00:16.018Z,4.73
2018-07-19T17:02:46.120Z,4.63
2018-07-19T17:05:16.320Z,5.00
2018-07-19T17:07:46.426Z,4.90
2018-07-19T17:10:16.576Z,4.70
2018-07-19T17:12:46.395Z,5.20
2018-07-19T17:15:16.327Z,5.50
2018-07-19T17:17:46.423Z,5.70
2018-07-19T17:20:16.580Z,5.00
2018-07-19T17:22:46.887Z,4.90
2018-07-19T17:25:16.973Z,5.37
2018-07-19T17:27:47.080Z,4.90
2018-07-19T17:30:17.192Z,5.57
2018-07-19T17:32:47.284Z,5.60
2018-07-19T17:35:17.426Z,4.60
2018-07-19T17:37:47.688Z,5.60
2018-07-19T17:40:17.896Z,5.43
2018-07-19T17:42:48.029Z,5.20
2018-07-19T17:45:18.171Z,4.83
2018-07-19T17:47:48.339Z,5.70
2018-07-19T17:50:18.453Z,4.57
2018-07-19T17:52:48.599Z,4.30
2018-07-19T17:55:18.728Z,4.50
2018-07-19T17:57:48.898Z,5.13
2018-07-19T18:00:19.056Z,5.37
2018-07-19T18:02:49.132Z,4.63
2018-07-19T18:05:18.943Z,5.10
2018-07-19T18:07:48.789Z,4.87
2018-07-19T18:10:18.892Z,4.63
2018-07-19T18:12:48.583Z,4.90
2018-07-19T18:15:18.095Z,4.93
2018-07-19T18:17:48.004Z,5.07
2018-07-19T18:20:18.139Z,4.93
2018-07-19T18:22:48.288Z,5.47
2018-07-19T18:25:18.412Z,4.80
2018-07-19T18:27:48.771Z,4.87
2018-07-19T18:30:18.964Z,4.67
2018-07-19T18:32:48.978Z,5.23
2018-07-19T18:35:18.448Z,5.33
2018-07-19T18:37:48.308Z,5.07
2018-07-19T18:40:18.524Z,5.47
2018-07-19T18:42:49.012Z,4.63
2018-07-19T18:45:18.763Z,5.73
2018-07-19T18:47:48.869Z,5.53
2018-07-19T18:50:19.124Z,4.97
2018-07-19T18:52:49.448Z,5.00
2018-07-19T18:55:19.608Z,5.27
2018-07-19T18:57:50.042Z,6.20
2018-07-19T19:00:19.775Z,5.73
2018-07-19T19:02:49.691Z,5.47
2018-07-19T19:05:19.988Z,5.43
2018-07-19T19:07:50.184Z,6.30
2018-07-19T19:10:20.367Z,6.83
2018-07-19T19:12:50.673Z,6.13
2018-07-19T19:15:20.936Z,5.73
2018-07-19T19:17:51.265Z,6.17
2018-07-19T19:20:21.410Z,6.67
2018-07-19T19:22:51.733Z,6.70
2018-07-19T19:25:22.368Z,5.03
2018-07-19T19:27:52.657Z,6.37
2018-07-19T19:30:22.727Z,6.10
2018-07-19T19:32:52.809Z,6.60
2018-07-19T19:35:22.992Z,5.77
2018-07-19T19:37:53.093Z,6.00
2018-07-19T19:40:23.278Z,6.20
2018-07-19T19:42:53.345Z,5.50
2018-07-19T19:45:23.545Z,5.87
2018-07-19T19:47:53.740Z,5.87
2018-07-19T19:50:23.910Z,6.37
2018-07-19T19:52:53.983Z,5.37
2018-07-19T19:55:23.864Z,5.53
2018-07-19T19:57:54.588Z,5.17
2018-07-19T20:00:24.674Z,6.40
2018-07-19T20:02:54.784Z,6.00
2018-07-19T20:05:24.967Z,5.73
2018-07-19T20:07:55.196Z,5.40
2018-07-19T20:10:25.303Z,5.70
2018-07-19T20:12:55.024Z,5.80
2018-07-19T20:15:24.824Z,5.80
2018-07-19T20:17:54.974Z,5.93
2018-07-19T20:20:24.764Z,5.60
2018-07-19T20:22:54.869Z,5.73
2018-07-19T20:25:24.960Z,5.73
2018-07-19T20:27:55.024Z,6.07
2018-07-19T20:30:25.140Z,5.23
2018-07-19T20:32:55.215Z,5.30
2018-07-19T20:35:25.353Z,5.10
2018-07-19T20:37:55.345Z,5.63
2018-07-19T20:40:25.444Z,6.53
2018-07-19T20:42:55.508Z,5.80
2018-07-19T20:45:25.800Z,5.47
2018-07-19T20:47:55.861Z,5.97
2018-07-19T20:50:25.928Z,5.60
2018-07-19T20:52:55.931Z,6.20
2018-07-19T20:55:25.991Z,5.73
2018-07-19T20:57:56.064Z,6.07
2018-07-19T21:00:26.133Z,6.23
2018-07-19T21:02:56.204Z,6.47
2018-07-19T21:05:26.216Z,5.73
2018-07-19T21:07:56.356Z,6.10
2018-07-19T21:10:26.403Z,5.93
2018-07-19T21:12:56.435Z,5.90
2018-07-19T21:15:26.515Z,6.63
2018-07-19T21:17:56.600Z,5.63
2018-07-19T21:20:26.755Z,6.43
2018-07-19T21:22:56.808Z,6.33
2018-07-19T21:25:26.864Z,6.43
2018-07-19T21:27:56.952Z,5.83
2018-07-19T21:30:26.996Z,6.43
2018-07-19T21:32:57.039Z,5.93
2018-07-19T21:35:27.037Z,6.00
2018-07-19T21:37:57.083Z,5.33
2018-07-19T21:40:27.172Z,6.10
2018-07-19T21:42:57.236Z,6.20
2018-07-19T21:45:27.352Z,6.70
2018-07-19T21:47:57.415Z,5.97
2018-07-19T21:50:27.488Z,6.27
2018-07-19T21:52:57.481Z,6.27
2018-07-19T21:55:27.512Z,5.87
2018-07-19T21:57:57.564Z,6.17
2018-07-19T22:00:29.901Z,6.37
2018-07-19T22:03:00.726Z,5.93
2018-07-19T22:05:30.540Z,6.10
2018-07-19T22:08:00.584Z,6.23
2018-07-19T22:10:30.685Z,6.13
2018-07-19T22:13:00.720Z,5.97
2018-07-19T22:15:30.700Z,6.23
2018-07-19T22:18:00.789Z,6.37
2018-07-19T22:20:30.844Z,6.43
2018-07-19T22:23:00.908Z,6.30
2018-07-19T22:25:30.963Z,6.07
2018-07-19T22:28:00.719Z,6.43
2018-07-19T22:30:30.484Z,6.63
2018-07-19T22:33:00.556Z,6.40
2018-07-19T22:35:30.595Z,6.20
2018-07-19T22:38:00.608Z,6.93
2018-07-19T22:40:30.713Z,6.53
2018-07-19T22:43:00.927Z,6.23
2018-07-19T22:45:31.016Z,6.37
2018-07-19T22:48:01.053Z,6.70
2018-07-19T22:50:31.115Z,6.43
2018-07-19T22:53:01.228Z,6.07
2018-07-19T22:55:31.208Z,6.07
2018-07-19T22:58:01.240Z,6.80
2018-07-19T23:00:31.331Z,6.37
2018-07-19T23:03:01.424Z,6.47
2018-07-19T23:05:31.439Z,6.70
2018-07-19T23:08:01.167Z,6.90
2018-07-19T23:10:30.899Z,6.57
2018-07-19T23:13:00.968Z,6.50
2018-07-19T23:15:31.327Z,6.87
2018-07-19T23:18:01.360Z,6.97
2018-07-19T23:20:31.416Z,6.73
2018-07-19T23:23:01.432Z,6.63
2018-07-19T23:25:31.464Z,6.57
2018-07-19T23:28:01.512Z,7.10
2018-07-19T23:30:33.851Z,5.97
2018-07-19T23:33:04.172Z,6.07
2018-07-19T23:35:37.479Z,6.17
2018-07-19T23:38:10.648Z,6.63
2018-07-19T23:40:43.239Z,7.33
2018-07-19T23:43:16.673Z,7.07
2018-07-19T23:45:51.951Z,6.63
2018-07-19T23:48:22.108Z,6.67
2018-07-19T23:50:52.172Z,6.87
2018-07-19T23:53:22.200Z,6.87
2018-07-19T23:55:52.244Z,6.63
2018-07-19T23:58:22.319Z,6.50
